sensor_id;sensor_type;location;lat;lon;timestamp;temperature;humidity
80254;DHT22;69563;37.974;23.708;2023-07-09T00:01:51;29.60;39.30
80254;DHT22;69563;37.974;23.708;2023-07-09T00:04:18;29.50;39.10
80254;DHT22;69563;37.974;23.708;2023-07-09T00:06:44;29.60;39.20
80254;DHT22;69563;37.974;23.708;2023-07-09T00:09:20;29.60;39.20
80254;DHT22;69563;37.974;23.708;2023-07-09T00:11:49;29.60;39.20
80254;DHT22;69563;37.974;23.708;2023-07-09T00:14:16;29.50;39.00
80254;DHT22;69563;37.974;23.708;2023-07-09T00:16:44;29.50;39.10
80254;DHT22;69563;37.974;23.708;2023-07-09T00:19:15;29.50;39.20
80254;DHT22;69563;37.974;23.708;2023-07-09T00:21:45;29.50;39.10
80254;DHT22;69563;37.974;23.708;2023-07-09T00:24:12;29.50;39.00
80254;DHT22;69563;37.974;23.708;2023-07-09T00:26:39;29.50;39.90
80254;DHT22;69563;37.974;23.708;2023-07-09T00:29:16;29.50;39.00
80254;DHT22;69563;37.974;23.708;2023-07-09T00:31:42;29.50;39.10
80254;DHT22;69563;37.974;23.708;2023-07-09T00:34:13;29.40;38.90
80254;DHT22;69563;37.974;23.708;2023-07-09T00:36:39;29.40;38.90
80254;DHT22;69563;37.974;23.708;2023-07-09T00:39:18;29.40;38.90
80254;DHT22;69563;37.974;23.708;2023-07-09T00:41:44;29.30;39.10
80254;DHT22;69563;37.974;23.708;2023-07-09T00:49:25;29.30;39.10
80254;DHT22;69563;37.974;23.708;2023-07-09T00:51:52;29.30;39.00
80254;DHT22;69563;37.974;23.708;2023-07-09T00:54:34;29.40;39.10
80254;DHT22;69563;37.974;23.708;2023-07-09T00:57:15;29.40;39.10
80254;DHT22;69563;37.974;23.708;2023-07-09T00:59:50;29.40;39.00
80254;DHT22;69563;37.974;23.708;2023-07-09T01:02:17;29.40;39.10
80254;DHT22;69563;37.974;23.708;2023-07-09T01:04:51;29.50;39.10
80254;DHT22;69563;37.974;23.708;2023-07-09T01:07:20;29.50;39.20
80254;DHT22;69563;37.974;23.708;2023-07-09T01:09:47;29.50;39.10
80254;DHT22;69563;37.974;23.708;2023-07-09T01:12:16;29.50;39.20
80254;DHT22;69563;37.974;23.708;2023-07-09T01:14:44;29.50;39.20
80254;DHT22;69563;37.974;23.708;2023-07-09T01:17:14;29.40;39.10
80254;DHT22;69563;37.974;23.708;2023-07-09T01:19:42;29.40;39.10
80254;DHT22;69563;37.974;23.708;2023-07-09T01:22:12;29.50;39.20
80254;DHT22;69563;37.974;23.708;2023-07-09T01:24:54;29.40;39.10
80254;DHT22;69563;37.974;23.708;2023-07-09T01:27:27;29.40;39.20
80254;DHT22;69563;37.974;23.708;2023-07-09T01:29:55;29.40;39.20
80254;DHT22;69563;37.974;23.708;2023-07-09T01:32:21;29.40;39.30
80254;DHT22;69563;37.974;23.708;2023-07-09T01:34:51;29.40;39.30
80254;DHT22;69563;37.974;23.708;2023-07-09T01:37:22;29.40;39.40
80254;DHT22;69563;37.974;23.708;2023-07-09T01:39:49;29.40;39.40
80254;DHT22;69563;37.974;23.708;2023-07-09T01:42:17;29.40;39.40
80254;DHT22;69563;37.974;23.708;2023-07-09T01:44:44;29.40;39.40
80254;DHT22;69563;37.974;23.708;2023-07-09T01:47:11;29.30;39.40
80254;DHT22;69563;37.974;23.708;2023-07-09T01:49:37;29.30;39.40
80254;DHT22;69563;37.974;23.708;2023-07-09T01:52:06;29.30;39.50
80254;DHT22;69563;37.974;23.708;2023-07-09T01:54:35;29.30;39.60
80254;DHT22;69563;37.974;23.708;2023-07-09T01:57:23;29.30;39.60
80254;DHT22;69563;37.974;23.708;2023-07-09T01:59:50;29.30;39.70
80254;DHT22;69563;37.974;23.708;2023-07-09T02:02:17;29.30;39.80
80254;DHT22;69563;37.974;23.708;2023-07-09T02:04:47;29.30;39.90
80254;DHT22;69563;37.974;23.708;2023-07-09T02:07:13;29.20;39.80
80254;DHT22;69563;37.974;23.708;2023-07-09T02:09:39;29.30;39.90
80254;DHT22;69563;37.974;23.708;2023-07-09T02:12:05;29.30;40.00
80254;DHT22;69563;37.974;23.708;2023-07-09T02:14:31;29.30;40.00
80254;DHT22;69563;37.974;23.708;2023-07-09T02:16:57;29.30;40.00
80254;DHT22;69563;37.974;23.708;2023-07-09T02:19:23;29.20;40.10
80254;DHT22;69563;37.974;23.708;2023-07-09T02:21:48;29.20;40.10
80254;DHT22;69563;37.974;23.708;2023-07-09T02:24:14;29.20;40.20
80254;DHT22;69563;37.974;23.708;2023-07-09T02:26:40;29.20;40.30
80254;DHT22;69563;37.974;23.708;2023-07-09T02:29:06;29.20;40.40
80254;DHT22;69563;37.974;23.708;2023-07-09T02:31:32;29.20;40.40
80254;DHT22;69563;37.974;23.708;2023-07-09T02:33:59;29.20;40.60
80254;DHT22;69563;37.974;23.708;2023-07-09T02:36:25;29.20;40.50
80254;DHT22;69563;37.974;23.708;2023-07-09T02:38:51;29.20;40.60
80254;DHT22;69563;37.974;23.708;2023-07-09T02:41:16;29.10;40.40
80254;DHT22;69563;37.974;23.708;2023-07-09T02:43:42;29.20;40.50
80254;DHT22;69563;37.974;23.708;2023-07-09T02:46:08;29.10;40.40
80254;DHT22;69563;37.974;23.708;2023-07-09T02:48:34;29.10;40.40
80254;DHT22;69563;37.974;23.708;2023-07-09T02:50:59;29.10;40.50
80254;DHT22;69563;37.974;23.708;2023-07-09T02:53:26;29.10;40.50
80254;DHT22;69563;37.974;23.708;2023-07-09T02:55:52;29.10;40.50
80254;DHT22;69563;37.974;23.708;2023-07-09T02:58:18;29.10;40.60
80254;DHT22;69563;37.974;23.708;2023-07-09T03:00:44;29.10;40.50
80254;DHT22;69563;37.974;23.708;2023-07-09T03:03:17;29.10;40.50
80254;DHT22;69563;37.974;23.708;2023-07-09T03:05:45;29.00;40.60
80254;DHT22;69563;37.974;23.708;2023-07-09T03:08:10;29.00;40.70
80254;DHT22;69563;37.974;23.708;2023-07-09T03:10:36;29.00;40.80
80254;DHT22;69563;37.974;23.708;2023-07-09T03:13:02;29.10;41.00
80254;DHT22;69563;37.974;23.708;2023-07-09T03:15:27;29.00;41.00
80254;DHT22;69563;37.974;23.708;2023-07-09T03:17:53;29.00;41.10
80254;DHT22;69563;37.974;23.708;2023-07-09T03:20:19;29.10;41.30
80254;DHT22;69563;37.974;23.708;2023-07-09T03:22:44;29.10;42.40
80254;DHT22;69563;37.974;23.708;2023-07-09T03:25:10;29.00;41.40
80254;DHT22;69563;37.974;23.708;2023-07-09T03:27:36;29.00;41.50
80254;DHT22;69563;37.974;23.708;2023-07-09T03:30:02;29.10;41.80
80254;DHT22;69563;37.974;23.708;2023-07-09T03:32:27;29.00;41.90
80254;DHT22;69563;37.974;23.708;2023-07-09T03:34:53;29.00;42.10
80254;DHT22;69563;37.974;23.708;2023-07-09T03:37:19;29.00;42.20
80254;DHT22;69563;37.974;23.708;2023-07-09T03:39:48;29.10;42.50
80254;DHT22;69563;37.974;23.708;2023-07-09T03:42:14;29.10;43.70
80254;DHT22;69563;37.974;23.708;2023-07-09T03:44:39;29.00;42.80
80254;DHT22;69563;37.974;23.708;2023-07-09T03:47:06;29.10;43.00
80254;DHT22;69563;37.974;23.708;2023-07-09T03:49:32;29.10;42.90
80254;DHT22;69563;37.974;23.708;2023-07-09T03:51:58;29.10;43.10
80254;DHT22;69563;37.974;23.708;2023-07-09T03:54:24;29.00;43.30
80254;DHT22;69563;37.974;23.708;2023-07-09T03:56:50;29.10;43.30
80254;DHT22;69563;37.974;23.708;2023-07-09T03:59:15;29.10;43.20
80254;DHT22;69563;37.974;23.708;2023-07-09T04:01:42;29.20;43.10
80254;DHT22;69563;37.974;23.708;2023-07-09T04:04:14;29.20;43.00
80254;DHT22;69563;37.974;23.708;2023-07-09T04:06:40;29.30;42.90
80254;DHT22;69563;37.974;23.708;2023-07-09T04:09:06;29.40;42.80
80254;DHT22;69563;37.974;23.708;2023-07-09T04:11:32;29.50;42.70
80254;DHT22;69563;37.974;23.708;2023-07-09T04:13:58;29.50;42.50
80254;DHT22;69563;37.974;23.708;2023-07-09T04:16:24;29.60;42.50
80254;DHT22;69563;37.974;23.708;2023-07-09T04:18:50;29.70;42.50
80254;DHT22;69563;37.974;23.708;2023-07-09T04:21:15;29.80;42.40
80254;DHT22;69563;37.974;23.708;2023-07-09T04:23:41;29.80;42.30
80254;DHT22;69563;37.974;23.708;2023-07-09T04:26:12;30.00;42.50
80254;DHT22;69563;37.974;23.708;2023-07-09T04:28:38;30.00;42.20
80254;DHT22;69563;37.974;23.708;2023-07-09T04:31:04;30.10;42.20
80254;DHT22;69563;37.974;23.708;2023-07-09T04:33:29;30.10;42.20
80254;DHT22;69563;37.974;23.708;2023-07-09T04:35:55;30.20;42.10
80254;DHT22;69563;37.974;23.708;2023-07-09T04:38:21;30.30;42.00
80254;DHT22;69563;37.974;23.708;2023-07-09T04:40:47;30.40;42.20
80254;DHT22;69563;37.974;23.708;2023-07-09T04:43:13;30.40;42.10
80254;DHT22;69563;37.974;23.708;2023-07-09T04:45:39;30.50;42.00
80254;DHT22;69563;37.974;23.708;2023-07-09T04:48:05;30.60;42.10
80254;DHT22;69563;37.974;23.708;2023-07-09T04:50:31;30.60;41.90
80254;DHT22;69563;37.974;23.708;2023-07-09T04:52:59;30.70;42.00
80254;DHT22;69563;37.974;23.708;2023-07-09T04:55:25;30.80;42.00
80254;DHT22;69563;37.974;23.708;2023-07-09T04:57:52;30.80;42.20
80254;DHT22;69563;37.974;23.708;2023-07-09T05:00:18;30.90;42.20
80254;DHT22;69563;37.974;23.708;2023-07-09T05:02:46;31.00;42.50
80254;DHT22;69563;37.974;23.708;2023-07-09T05:05:11;31.00;42.40
80254;DHT22;69563;37.974;23.708;2023-07-09T05:07:38;31.10;42.30
80254;DHT22;69563;37.974;23.708;2023-07-09T05:10:05;31.20;42.40
80254;DHT22;69563;37.974;23.708;2023-07-09T05:12:31;31.20;42.10
80254;DHT22;69563;37.974;23.708;2023-07-09T05:14:57;31.30;42.20
80254;DHT22;69563;37.974;23.708;2023-07-09T05:17:23;31.40;42.30
80254;DHT22;69563;37.974;23.708;2023-07-09T05:19:50;31.40;42.20
80254;DHT22;69563;37.974;23.708;2023-07-09T05:22:16;31.50;42.30
80254;DHT22;69563;37.974;23.708;2023-07-09T05:24:41;31.60;42.40
80254;DHT22;69563;37.974;23.708;2023-07-09T05:27:08;31.60;42.20
80254;DHT22;69563;37.974;23.708;2023-07-09T05:29:34;31.70;42.10
80254;DHT22;69563;37.974;23.708;2023-07-09T05:32:00;31.80;42.10
80254;DHT22;69563;37.974;23.708;2023-07-09T05:34:25;31.80;41.80
80254;DHT22;69563;37.974;23.708;2023-07-09T05:36:51;31.90;41.90
80254;DHT22;69563;37.974;23.708;2023-07-09T05:39:17;32.00;41.70
80254;DHT22;69563;37.974;23.708;2023-07-09T05:41:43;32.10;41.60
80254;DHT22;69563;37.974;23.708;2023-07-09T05:44:09;32.20;41.60
80254;DHT22;69563;37.974;23.708;2023-07-09T05:46:36;32.20;41.50
80254;DHT22;69563;37.974;23.708;2023-07-09T05:49:06;32.30;41.40
80254;DHT22;69563;37.974;23.708;2023-07-09T05:51:32;32.30;41.30
80254;DHT22;69563;37.974;23.708;2023-07-09T05:53:58;32.40;41.20
80254;DHT22;69563;37.974;23.708;2023-07-09T05:56:23;32.50;41.10
80254;DHT22;69563;37.974;23.708;2023-07-09T05:58:49;32.50;41.00
80254;DHT22;69563;37.974;23.708;2023-07-09T06:01:15;32.60;40.80
80254;DHT22;69563;37.974;23.708;2023-07-09T06:03:40;32.70;40.80
80254;DHT22;69563;37.974;23.708;2023-07-09T06:06:06;32.80;40.70
80254;DHT22;69563;37.974;23.708;2023-07-09T06:08:32;32.90;40.50
80254;DHT22;69563;37.974;23.708;2023-07-09T06:11:00;32.90;40.40
80254;DHT22;69563;37.974;23.708;2023-07-09T06:13:28;33.00;40.30
80254;DHT22;69563;37.974;23.708;2023-07-09T06:15:56;33.10;40.20
80254;DHT22;69563;37.974;23.708;2023-07-09T06:18:23;33.10;39.90
80254;DHT22;69563;37.974;23.708;2023-07-09T06:20:55;33.20;39.70
80254;DHT22;69563;37.974;23.708;2023-07-09T06:23:21;33.30;39.50
80254;DHT22;69563;37.974;23.708;2023-07-09T06:25:47;33.40;39.40
80254;DHT22;69563;37.974;23.708;2023-07-09T06:28:18;33.40;39.20
80254;DHT22;69563;37.974;23.708;2023-07-09T06:30:44;33.50;39.00
80254;DHT22;69563;37.974;23.708;2023-07-09T06:33:13;33.60;39.00
80254;DHT22;69563;37.974;23.708;2023-07-09T06:35:39;33.60;38.90
80254;DHT22;69563;37.974;23.708;2023-07-09T06:38:05;33.70;38.80
80254;DHT22;69563;37.974;23.708;2023-07-09T06:40:31;33.80;38.70
80254;DHT22;69563;37.974;23.708;2023-07-09T06:42:57;33.80;38.50
80254;DHT22;69563;37.974;23.708;2023-07-09T06:45:24;33.90;38.40
80254;DHT22;69563;37.974;23.708;2023-07-09T06:47:49;33.90;38.30
80254;DHT22;69563;37.974;23.708;2023-07-09T06:50:15;33.90;38.20
80254;DHT22;69563;37.974;23.708;2023-07-09T06:52:41;34.00;38.10
80254;DHT22;69563;37.974;23.708;2023-07-09T06:55:07;34.10;38.00
80254;DHT22;69563;37.974;23.708;2023-07-09T06:57:33;34.10;37.90
80254;DHT22;69563;37.974;23.708;2023-07-09T06:59:59;34.10;37.70
80254;DHT22;69563;37.974;23.708;2023-07-09T07:02:25;34.20;37.70
80254;DHT22;69563;37.974;23.708;2023-07-09T07:04:51;34.20;37.60
80254;DHT22;69563;37.974;23.708;2023-07-09T07:07:16;34.20;37.50
80254;DHT22;69563;37.974;23.708;2023-07-09T07:09:42;34.30;37.60
80254;DHT22;69563;37.974;23.708;2023-07-09T07:12:08;34.30;37.60
80254;DHT22;69563;37.974;23.708;2023-07-09T07:14:34;34.30;37.40
80254;DHT22;69563;37.974;23.708;2023-07-09T07:17:00;34.30;37.40
80254;DHT22;69563;37.974;23.708;2023-07-09T07:19:26;34.30;37.40
80254;DHT22;69563;37.974;23.708;2023-07-09T07:21:52;34.30;37.40
80254;DHT22;69563;37.974;23.708;2023-07-09T07:24:18;34.30;37.40
80254;DHT22;69563;37.974;23.708;2023-07-09T07:26:44;34.30;37.30
80254;DHT22;69563;37.974;23.708;2023-07-09T07:29:09;34.30;37.30
80254;DHT22;69563;37.974;23.708;2023-07-09T07:31:35;34.30;37.40
80254;DHT22;69563;37.974;23.708;2023-07-09T07:34:01;34.20;37.30
80254;DHT22;69563;37.974;23.708;2023-07-09T07:36:27;34.20;37.40
80254;DHT22;69563;37.974;23.708;2023-07-09T07:38:52;34.10;37.50
80254;DHT22;69563;37.974;23.708;2023-07-09T07:41:18;34.00;37.50
80254;DHT22;69563;37.974;23.708;2023-07-09T07:43:44;34.00;37.60
80254;DHT22;69563;37.974;23.708;2023-07-09T07:46:09;33.80;37.60
80254;DHT22;69563;37.974;23.708;2023-07-09T07:48:35;33.70;37.80
80254;DHT22;69563;37.974;23.708;2023-07-09T07:51:02;33.60;37.90
80254;DHT22;69563;37.974;23.708;2023-07-09T07:53:32;33.40;37.90
80254;DHT22;69563;37.974;23.708;2023-07-09T07:55:58;33.40;38.20
80254;DHT22;69563;37.974;23.708;2023-07-09T07:58:24;33.30;38.30
80254;DHT22;69563;37.974;23.708;2023-07-09T08:00:53;33.20;38.30
80254;DHT22;69563;37.974;23.708;2023-07-09T08:03:19;33.20;38.40
80254;DHT22;69563;37.974;23.708;2023-07-09T08:05:49;33.20;38.50
80254;DHT22;69563;37.974;23.708;2023-07-09T08:08:15;33.10;38.40
80254;DHT22;69563;37.974;23.708;2023-07-09T08:10:41;33.10;38.50
80254;DHT22;69563;37.974;23.708;2023-07-09T08:13:07;33.10;38.40
80254;DHT22;69563;37.974;23.708;2023-07-09T08:15:33;33.10;38.40
80254;DHT22;69563;37.974;23.708;2023-07-09T08:17:59;33.10;38.40
80254;DHT22;69563;37.974;23.708;2023-07-09T08:20:25;33.00;38.40
80254;DHT22;69563;37.974;23.708;2023-07-09T08:22:51;33.00;38.50
80254;DHT22;69563;37.974;23.708;2023-07-09T08:25:17;32.90;38.40
80254;DHT22;69563;37.974;23.708;2023-07-09T08:27:42;32.90;38.40
80254;DHT22;69563;37.974;23.708;2023-07-09T08:30:09;32.90;38.60
80254;DHT22;69563;37.974;23.708;2023-07-09T08:32:34;32.90;38.50
80254;DHT22;69563;37.974;23.708;2023-07-09T08:35:00;32.80;38.40
80254;DHT22;69563;37.974;23.708;2023-07-09T08:37:26;32.80;38.40
80254;DHT22;69563;37.974;23.708;2023-07-09T08:39:51;32.80;38.40
80254;DHT22;69563;37.974;23.708;2023-07-09T08:42:26;32.80;38.50
80254;DHT22;69563;37.974;23.708;2023-07-09T08:44:58;32.70;38.40
80254;DHT22;69563;37.974;23.708;2023-07-09T08:50:11;32.70;38.50
80254;DHT22;69563;37.974;23.708;2023-07-09T08:52:41;32.70;38.50
80254;DHT22;69563;37.974;23.708;2023-07-09T08:55:21;32.60;38.20
80254;DHT22;69563;37.974;23.708;2023-07-09T08:57:55;32.60;38.30
80254;DHT22;69563;37.974;23.708;2023-07-09T09:00:33;32.60;38.30
80254;DHT22;69563;37.974;23.708;2023-07-09T09:03:37;32.60;38.20
80254;DHT22;69563;37.974;23.708;2023-07-09T09:05:55;32.60;38.10
80254;DHT22;69563;37.974;23.708;2023-07-09T09:08:40;32.60;38.00
80254;DHT22;69563;37.974;23.708;2023-07-09T09:13:55;32.60;37.70
80254;DHT22;69563;37.974;23.708;2023-07-09T09:18:57;32.70;37.80
80254;DHT22;69563;37.974;23.708;2023-07-09T09:21:31;32.60;37.40
80254;DHT22;69563;37.974;23.708;2023-07-09T09:24:03;32.60;37.30
80254;DHT22;69563;37.974;23.708;2023-07-09T09:26:33;32.60;37.20
80254;DHT22;69563;37.974;23.708;2023-07-09T09:29:00;32.60;37.10
80254;DHT22;69563;37.974;23.708;2023-07-09T09:31:29;32.60;37.00
80254;DHT22;69563;37.974;23.708;2023-07-09T09:33:55;32.60;36.90
80254;DHT22;69563;37.974;23.708;2023-07-09T09:36:24;32.60;36.90
80254;DHT22;69563;37.974;23.708;2023-07-09T09:38:51;32.60;36.90
80254;DHT22;69563;37.974;23.708;2023-07-09T09:41:22;32.60;36.90
80254;DHT22;69563;37.974;23.708;2023-07-09T09:43:52;32.60;36.70
80254;DHT22;69563;37.974;23.708;2023-07-09T09:46:23;32.60;36.60
80254;DHT22;69563;37.974;23.708;2023-07-09T09:48:51;32.60;36.60
80254;DHT22;69563;37.974;23.708;2023-07-09T09:51:18;32.60;36.50
80254;DHT22;69563;37.974;23.708;2023-07-09T09:53:50;32.60;36.60
80254;DHT22;69563;37.974;23.708;2023-07-09T09:56:33;32.60;36.40
80254;DHT22;69563;37.974;23.708;2023-07-09T09:59:00;32.60;36.40
80254;DHT22;69563;37.974;23.708;2023-07-09T10:01:31;32.60;36.60
80254;DHT22;69563;37.974;23.708;2023-07-09T10:03:58;32.50;36.80
80254;DHT22;69563;37.974;23.708;2023-07-09T10:06:40;32.60;37.30
80254;DHT22;69563;37.974;23.708;2023-07-09T10:09:30;32.50;37.50
80254;DHT22;69563;37.974;23.708;2023-07-09T10:20:31;32.40;39.00
80254;DHT22;69563;37.974;23.708;2023-07-09T10:28:45;32.30;39.80
80254;DHT22;69563;37.974;23.708;2023-07-09T10:31:23;32.30;40.10
80254;DHT22;69563;37.974;23.708;2023-07-09T10:39:38;32.20;40.50
80254;DHT22;69563;37.974;23.708;2023-07-09T10:42:11;32.20;40.60
80254;DHT22;69563;37.974;23.708;2023-07-09T10:44:42;32.20;40.80
80254;DHT22;69563;37.974;23.708;2023-07-09T10:47:25;32.20;40.80
80254;DHT22;69563;37.974;23.708;2023-07-09T10:49:53;32.10;40.80
80254;DHT22;69563;37.974;23.708;2023-07-09T10:52:30;32.10;40.80
80254;DHT22;69563;37.974;23.708;2023-07-09T10:55:18;32.10;40.90
80254;DHT22;69563;37.974;23.708;2023-07-09T10:58:06;32.10;40.90
80254;DHT22;69563;37.974;23.708;2023-07-09T11:00:40;32.00;40.90
80254;DHT22;69563;37.974;23.708;2023-07-09T11:05:43;32.00;41.00
80254;DHT22;69563;37.974;23.708;2023-07-09T11:08:15;32.00;41.00
80254;DHT22;69563;37.974;23.708;2023-07-09T11:13:26;32.00;41.10
80254;DHT22;69563;37.974;23.708;2023-07-09T11:15:56;31.90;41.00
80254;DHT22;69563;37.974;23.708;2023-07-09T11:18:24;31.90;41.00
80254;DHT22;69563;37.974;23.708;2023-07-09T11:21:06;31.90;41.00
80254;DHT22;69563;37.974;23.708;2023-07-09T11:23:52;31.90;41.00
80254;DHT22;69563;37.974;23.708;2023-07-09T11:26:33;31.90;41.10
80254;DHT22;69563;37.974;23.708;2023-07-09T11:34:17;31.90;41.10
80254;DHT22;69563;37.974;23.708;2023-07-09T11:36:48;31.80;41.00
80254;DHT22;69563;37.974;23.708;2023-07-09T11:39:41;31.80;41.10
80254;DHT22;69563;37.974;23.708;2023-07-09T11:42:27;31.80;41.10
80254;DHT22;69563;37.974;23.708;2023-07-09T11:45:09;31.80;41.10
80254;DHT22;69563;37.974;23.708;2023-07-09T11:48:32;31.80;41.20
80254;DHT22;69563;37.974;23.708;2023-07-09T11:50:46;31.70;41.20
80254;DHT22;69563;37.974;23.708;2023-07-09T11:55:54;31.70;41.30
80254;DHT22;69563;37.974;23.708;2023-07-09T11:58:20;31.70;41.40
80254;DHT22;69563;37.974;23.708;2023-07-09T12:00:47;31.70;41.40
80254;DHT22;69563;37.974;23.708;2023-07-09T12:03:24;31.70;41.50
80254;DHT22;69563;37.974;23.708;2023-07-09T12:06:00;31.70;41.50
80254;DHT22;69563;37.974;23.708;2023-07-09T12:08:45;31.70;41.50
80254;DHT22;69563;37.974;23.708;2023-07-09T12:11:27;31.70;41.50
80254;DHT22;69563;37.974;23.708;2023-07-09T12:13:54;31.60;41.60
80254;DHT22;69563;37.974;23.708;2023-07-09T12:16:36;31.60;41.80
80254;DHT22;69563;37.974;23.708;2023-07-09T12:19:02;31.60;42.00
80254;DHT22;69563;37.974;23.708;2023-07-09T12:21:37;31.60;42.20
80254;DHT22;69563;37.974;23.708;2023-07-09T12:24:21;31.60;42.40
80254;DHT22;69563;37.974;23.708;2023-07-09T12:26:59;31.60;42.40
80254;DHT22;69563;37.974;23.708;2023-07-09T12:29:33;31.60;42.40
80254;DHT22;69563;37.974;23.708;2023-07-09T12:32:03;31.60;42.40
80254;DHT22;69563;37.974;23.708;2023-07-09T12:34:32;31.50;42.50
80254;DHT22;69563;37.974;23.708;2023-07-09T12:36:57;31.60;42.70
80254;DHT22;69563;37.974;23.708;2023-07-09T12:39:28;31.50;42.80
80254;DHT22;69563;37.974;23.708;2023-07-09T12:41:55;31.60;42.90
80254;DHT22;69563;37.974;23.708;2023-07-09T12:44:22;31.50;42.80
80254;DHT22;69563;37.974;23.708;2023-07-09T12:46:50;31.50;43.00
80254;DHT22;69563;37.974;23.708;2023-07-09T12:49:25;31.50;42.90
80254;DHT22;69563;37.974;23.708;2023-07-09T12:51:57;31.50;43.00
80254;DHT22;69563;37.974;23.708;2023-07-09T12:54:23;31.50;42.90
80254;DHT22;69563;37.974;23.708;2023-07-09T12:56:53;31.50;42.90
80254;DHT22;69563;37.974;23.708;2023-07-09T12:59:38;31.50;42.90
80254;DHT22;69563;37.974;23.708;2023-07-09T13:02:28;31.50;42.90
80254;DHT22;69563;37.974;23.708;2023-07-09T13:05:03;31.50;42.90
80254;DHT22;69563;37.974;23.708;2023-07-09T13:07:33;31.40;42.90
80254;DHT22;69563;37.974;23.708;2023-07-09T13:10:06;31.40;42.90
80254;DHT22;69563;37.974;23.708;2023-07-09T13:12:33;31.40;42.90
80254;DHT22;69563;37.974;23.708;2023-07-09T13:14:59;31.40;42.90
80254;DHT22;69563;37.974;23.708;2023-07-09T13:17:31;31.40;42.90
80254;DHT22;69563;37.974;23.708;2023-07-09T13:19:57;31.40;42.80
80254;DHT22;69563;37.974;23.708;2023-07-09T13:22:23;31.40;42.80
80254;DHT22;69563;37.974;23.708;2023-07-09T13:24:50;31.40;42.90
80254;DHT22;69563;37.974;23.708;2023-07-09T13:27:16;31.40;42.90
80254;DHT22;69563;37.974;23.708;2023-07-09T13:29:42;31.40;42.90
80254;DHT22;69563;37.974;23.708;2023-07-09T13:32:10;31.40;42.90
80254;DHT22;69563;37.974;23.708;2023-07-09T13:34:36;31.40;42.90
80254;DHT22;69563;37.974;23.708;2023-07-09T13:37:01;31.30;42.90
80254;DHT22;69563;37.974;23.708;2023-07-09T13:39:27;31.30;42.90
80254;DHT22;69563;37.974;23.708;2023-07-09T13:41:53;31.30;42.90
80254;DHT22;69563;37.974;23.708;2023-07-09T13:44:22;31.30;42.90
80254;DHT22;69563;37.974;23.708;2023-07-09T13:46:48;31.30;43.00
80254;DHT22;69563;37.974;23.708;2023-07-09T13:49:16;31.30;43.00
80254;DHT22;69563;37.974;23.708;2023-07-09T13:51:47;31.30;43.00
80254;DHT22;69563;37.974;23.708;2023-07-09T13:54:19;31.30;43.00
80254;DHT22;69563;37.974;23.708;2023-07-09T13:56:46;31.30;43.10
80254;DHT22;69563;37.974;23.708;2023-07-09T13:59:21;31.30;43.10
80254;DHT22;69563;37.974;23.708;2023-07-09T14:01:49;31.30;43.20
80254;DHT22;69563;37.974;23.708;2023-07-09T14:04:16;31.30;43.20
80254;DHT22;69563;37.974;23.708;2023-07-09T14:06:42;31.20;43.10
80254;DHT22;69563;37.974;23.708;2023-07-09T14:09:09;31.20;43.20
80254;DHT22;69563;37.974;23.708;2023-07-09T14:11:44;31.20;43.20
80254;DHT22;69563;37.974;23.708;2023-07-09T14:14:23;31.20;43.20
80254;DHT22;69563;37.974;23.708;2023-07-09T14:16:50;31.20;43.20
80254;DHT22;69563;37.974;23.708;2023-07-09T14:19:18;31.20;43.30
80254;DHT22;69563;37.974;23.708;2023-07-09T14:21:45;31.20;43.30
80254;DHT22;69563;37.974;23.708;2023-07-09T14:26:43;31.20;43.50
80254;DHT22;69563;37.974;23.708;2023-07-09T14:29:11;31.20;43.60
80254;DHT22;69563;37.974;23.708;2023-07-09T14:31:37;31.20;43.70
80254;DHT22;69563;37.974;23.708;2023-07-09T14:34:27;31.20;43.80
80254;DHT22;69563;37.974;23.708;2023-07-09T14:36:56;31.20;43.90
80254;DHT22;69563;37.974;23.708;2023-07-09T14:39:23;31.10;43.90
80254;DHT22;69563;37.974;23.708;2023-07-09T14:41:49;31.10;44.00
80254;DHT22;69563;37.974;23.708;2023-07-09T14:46:49;31.10;44.20
80254;DHT22;69563;37.974;23.708;2023-07-09T14:49:17;31.10;44.10
80254;DHT22;69563;37.974;23.708;2023-07-09T14:51:43;31.10;44.10
80254;DHT22;69563;37.974;23.708;2023-07-09T14:54:22;31.10;44.30
80254;DHT22;69563;37.974;23.708;2023-07-09T14:56:49;31.10;44.30
80254;DHT22;69563;37.974;23.708;2023-07-09T14:59:15;31.10;44.30
80254;DHT22;69563;37.974;23.708;2023-07-09T15:01:42;31.10;44.40
80254;DHT22;69563;37.974;23.708;2023-07-09T15:06:50;31.10;44.50
80254;DHT22;69563;37.974;23.708;2023-07-09T15:09:19;31.00;44.40
80254;DHT22;69563;37.974;23.708;2023-07-09T15:11:50;31.10;44.50
80254;DHT22;69563;37.974;23.708;2023-07-09T15:14:16;31.00;44.40
80254;DHT22;69563;37.974;23.708;2023-07-09T15:16:42;31.00;44.50
80254;DHT22;69563;37.974;23.708;2023-07-09T15:19:15;31.00;44.40
80254;DHT22;69563;37.974;23.708;2023-07-09T15:21:41;31.00;44.40
80254;DHT22;69563;37.974;23.708;2023-07-09T15:24:21;31.00;44.40
80254;DHT22;69563;37.974;23.708;2023-07-09T15:26:51;31.00;44.40
80254;DHT22;69563;37.974;23.708;2023-07-09T15:29:21;31.00;44.40
80254;DHT22;69563;37.974;23.708;2023-07-09T15:31:47;31.00;44.50
80254;DHT22;69563;37.974;23.708;2023-07-09T15:34:13;31.00;44.50
80254;DHT22;69563;37.974;23.708;2023-07-09T15:36:45;31.00;44.50
80254;DHT22;69563;37.974;23.708;2023-07-09T15:39:13;31.00;44.60
80254;DHT22;69563;37.974;23.708;2023-07-09T15:41:39;31.00;45.70
80254;DHT22;69563;37.974;23.708;2023-07-09T15:44:08;30.90;44.60
80254;DHT22;69563;37.974;23.708;2023-07-09T15:46:34;30.90;44.70
80254;DHT22;69563;37.974;23.708;2023-07-09T15:49:00;31.00;44.80
80254;DHT22;69563;37.974;23.708;2023-07-09T15:51:26;30.90;44.70
80254;DHT22;69563;37.974;23.708;2023-07-09T15:53:52;30.90;44.80
80254;DHT22;69563;37.974;23.708;2023-07-09T15:56:25;30.90;44.80
80254;DHT22;69563;37.974;23.708;2023-07-09T15:58:52;31.00;44.90
80254;DHT22;69563;37.974;23.708;2023-07-09T16:01:18;30.90;44.80
80254;DHT22;69563;37.974;23.708;2023-07-09T16:03:49;30.90;44.90
80254;DHT22;69563;37.974;23.708;2023-07-09T16:06:16;30.90;44.90
80254;DHT22;69563;37.974;23.708;2023-07-09T16:08:42;30.90;44.90
80254;DHT22;69563;37.974;23.708;2023-07-09T16:11:22;30.90;44.90
80254;DHT22;69563;37.974;23.708;2023-07-09T16:13:49;30.90;44.90
80254;DHT22;69563;37.974;23.708;2023-07-09T16:16:21;30.90;45.00
80254;DHT22;69563;37.974;23.708;2023-07-09T16:18:47;30.90;45.00
80254;DHT22;69563;37.974;23.708;2023-07-09T16:23:48;30.90;45.20